createdAt,value
2023-03-18T00:03:37.488Z,0.26
2023-03-18T00:08:40.160Z,0.16
2023-03-18T00:13:49.903Z,0.02
2023-03-18T00:18:53.188Z,-0.17
2023-03-18T00:23:57.035Z,-0.34
2023-03-18T00:28:59.245Z,-0.49
2023-03-18T00:34:01.426Z,-0.61
2023-03-18T00:39:03.832Z,-0.74
2023-03-18T00:44:06.321Z,-0.86
2023-03-18T00:49:11.052Z,-0.96
2023-03-18T00:54:19.718Z,-1.07
2023-03-18T00:59:24.061Z,-1.16
2023-03-18T01:04:25.948Z,-1.23
2023-03-18T01:09:27.698Z,-1.26
2023-03-18T01:14:30.007Z,-1.18
2023-03-18T01:19:31.934Z,1.10
2023-03-18T01:24:34.042Z,4.55
2023-03-18T01:29:36.307Z,6.04
2023-03-18T01:34:41.602Z,6.26
2023-03-18T01:39:43.679Z,3.81
2023-03-18T01:45:10.094Z,2.22
2023-03-18T01:50:14.977Z,1.22
2023-03-18T01:55:19.375Z,0.65
2023-03-18T02:00:21.826Z,2.69
2023-03-18T02:10:27.626Z,5.74
2023-03-18T02:15:33.115Z,3.62
2023-03-18T02:20:40.708Z,2.05
2023-03-18T02:26:01.991Z,1.08
2023-03-18T02:31:05.792Z,0.32
2023-03-18T02:36:17.880Z,-0.31
2023-03-18T02:41:24.716Z,-0.86
2023-03-18T02:46:27.132Z,-1.32
2023-03-18T02:51:29.898Z,-1.60
2023-03-18T02:56:32.064Z,0.51
2023-03-18T03:01:35.266Z,2.39
2023-03-18T03:06:37.437Z,1.15
2023-03-18T03:11:40.904Z,0.02
2023-03-18T03:16:48.620Z,2.15
2023-03-18T03:21:52.462Z,4.35
2023-03-18T03:26:54.303Z,5.33
2023-03-18T03:31:56.492Z,4.72
2023-03-18T03:36:58.994Z,2.38
2023-03-18T03:42:00.936Z,0.90
2023-03-18T03:47:02.708Z,0.01
2023-03-18T03:52:05.138Z,1.80
2023-03-18T03:57:09.100Z,4.44
2023-03-18T04:02:10.888Z,5.63
2023-03-18T04:07:14.395Z,4.42
2023-03-18T04:12:18.375Z,2.07
2023-03-18T04:17:24.680Z,2.36
2023-03-18T04:22:26.632Z,4.49
2023-03-18T04:27:29.099Z,5.26
2023-03-18T04:32:32.142Z,4.30
2023-03-18T04:37:37.335Z,1.92
2023-03-18T04:42:40.086Z,0.73
2023-03-18T04:47:44.432Z,2.12
2023-03-18T04:52:47.151Z,3.69
2023-03-18T04:57:51.641Z,4.76
2023-03-18T05:06:30.244Z,4.00
2023-03-18T05:11:35.086Z,3.09
2023-03-18T05:16:45.620Z,5.47
2023-03-18T05:21:48.039Z,4.42
2023-03-18T05:26:51.186Z,2.88
2023-03-18T05:31:54.554Z,3.76
2023-03-18T05:36:57.713Z,6.39
2023-03-18T05:42:02.265Z,5.21
2023-03-18T05:47:04.643Z,3.47
2023-03-18T05:52:32.693Z,3.69
2023-03-18T05:57:38.977Z,5.87
2023-03-18T06:02:42.896Z,6.81
2023-03-18T06:07:45.729Z,5.27
2023-03-18T06:12:47.843Z,4.08
2023-03-18T06:17:52.777Z,3.54
2023-03-18T06:22:54.818Z,4.15
2023-03-18T06:27:58.909Z,6.88
2023-03-18T06:33:03.534Z,7.44
2023-03-18T06:38:06.608Z,5.93
2023-03-18T06:43:09.245Z,5.21
2023-03-18T06:48:13.511Z,4.95
2023-03-18T06:53:18.115Z,4.97
2023-03-18T06:58:21.372Z,6.06
2023-03-18T07:03:32.919Z,8.91
2023-03-18T07:08:36.002Z,9.34
2023-03-18T07:13:37.914Z,8.48
2023-03-18T07:18:42.825Z,8.20
2023-03-18T07:23:46.313Z,8.29
2023-03-18T07:28:48.287Z,10.11
2023-03-18T07:33:50.068Z,11.23
2023-03-18T07:38:51.882Z,10.59
2023-03-18T07:43:53.751Z,10.28
2023-03-18T07:48:55.467Z,10.28
2023-03-18T07:53:57.483Z,10.42
2023-03-18T07:58:59.539Z,10.59
2023-03-18T08:04:01.280Z,10.77
2023-03-18T08:09:03.835Z,10.90
2023-03-18T08:14:05.808Z,10.99
2023-03-18T08:19:07.556Z,11.25
2023-03-18T08:24:09.661Z,11.63
2023-03-18T08:29:11.369Z,11.93
2023-03-18T08:34:14.101Z,12.26
2023-03-18T08:39:15.991Z,12.64
2023-03-18T08:44:18.115Z,12.95
2023-03-18T08:49:19.961Z,13.20
2023-03-18T08:54:21.781Z,13.47
2023-03-18T08:59:23.680Z,13.64
2023-03-18T09:04:26.014Z,13.78
2023-03-18T09:09:37.371Z,14.01
2023-03-18T09:14:44.971Z,14.15
2023-03-18T09:19:46.705Z,14.21
2023-03-18T09:24:48.444Z,14.17
2023-03-18T09:29:50.656Z,14.26
2023-03-18T09:34:53.717Z,14.32
2023-03-18T09:39:56.133Z,14.43
2023-03-18T09:45:06.490Z,14.75
2023-03-18T09:50:36.872Z,15.12
2023-03-18T09:55:50.692Z,15.29
2023-03-18T10:01:00.230Z,15.30
2023-03-18T10:06:11.189Z,15.29
2023-03-18T10:11:19.622Z,15.23
2023-03-18T10:16:27.095Z,15.39
2023-03-18T10:21:48.520Z,15.34
2023-03-18T10:27:24.707Z,15.46
2023-03-18T10:33:02.873Z,15.65
2023-03-18T10:38:18.010Z,15.89
2023-03-18T10:43:25.235Z,16.09
2023-03-18T10:48:32.419Z,16.11
2023-03-18T10:53:45.459Z,16.24
2023-03-18T10:58:47.697Z,16.41
2023-03-18T11:03:54.757Z,16.64
2023-03-18T11:09:08.552Z,16.64
2023-03-18T11:14:28.931Z,16.58
2023-03-18T11:19:41.280Z,16.69
2023-03-18T11:24:43.996Z,16.85
2023-03-18T11:29:55.304Z,17.06
2023-03-18T11:34:58.924Z,17.12
2023-03-18T11:40:23.725Z,17.13
2023-03-18T11:45:44.368Z,16.85
2023-03-18T11:50:53.922Z,16.70
2023-03-18T11:56:06.584Z,16.74
2023-03-18T12:01:32.786Z,16.75
2023-03-18T12:07:05.650Z,16.87
2023-03-18T12:12:21.309Z,17.08
2023-03-18T12:17:35.963Z,17.22
2023-03-18T12:23:01.070Z,17.30
2023-03-18T12:28:30.646Z,17.39
2023-03-18T12:33:56.522Z,17.50
2023-03-18T12:39:24.348Z,17.46
2023-03-18T12:44:45.144Z,17.52
2023-03-18T12:49:52.742Z,17.78
2023-03-18T12:55:17.907Z,17.88
2023-03-18T13:00:28.379Z,17.88
2023-03-18T13:05:47.070Z,18.06
2023-03-18T13:10:57.682Z,18.33
2023-03-18T13:16:01.402Z,18.68
2023-03-18T13:21:05.617Z,18.92
2023-03-18T13:26:14.001Z,18.90
2023-03-18T13:31:24.752Z,19.04
2023-03-18T13:36:38.143Z,19.34
2023-03-18T13:42:18.545Z,19.56
2023-03-18T13:47:22.569Z,19.65
2023-03-18T13:52:33.571Z,19.63
2023-03-18T13:57:47.057Z,19.60
2023-03-18T14:03:05.803Z,19.08
2023-03-18T14:08:38.689Z,18.62
2023-03-18T14:13:40.841Z,18.13
2023-03-18T14:18:43.216Z,18.05
2023-03-18T14:23:45.264Z,18.17
2023-03-18T14:28:55.178Z,18.44
2023-03-18T14:34:17.868Z,18.78
2023-03-18T14:39:30.745Z,19.15
2023-03-18T14:44:50.413Z,19.52
2023-03-18T14:50:01.291Z,19.72
2023-03-18T14:55:15.458Z,19.74
2023-03-18T15:00:19.130Z,19.49
2023-03-18T15:05:22.850Z,19.11
2023-03-18T15:10:29.405Z,18.43
2023-03-18T15:15:32.123Z,18.17
2023-03-18T15:20:36.396Z,17.99
2023-03-18T15:25:41.327Z,17.80
2023-03-18T15:30:52.449Z,17.63
2023-03-18T15:36:04.367Z,17.57
2023-03-18T15:41:09.525Z,17.57
2023-03-18T15:46:15.898Z,17.18
2023-03-18T15:51:30.865Z,16.72
2023-03-18T15:56:35.997Z,16.64
2023-03-18T16:01:37.839Z,16.54
2023-03-18T16:06:40.396Z,16.26
2023-03-18T16:11:43.586Z,16.04
2023-03-18T16:16:45.933Z,15.90
2023-03-18T16:21:47.637Z,15.74
2023-03-18T16:26:51.729Z,15.45
2023-03-18T16:31:53.478Z,15.07
2023-03-18T16:36:56.139Z,14.67
2023-03-18T16:41:57.829Z,14.26
2023-03-18T16:46:59.792Z,13.88
2023-03-18T16:52:04.211Z,13.53
2023-03-18T16:57:10.442Z,13.19
2023-03-18T17:02:33.718Z,12.82
2023-03-18T17:07:37.050Z,12.47
2023-03-18T17:12:40.239Z,12.16
2023-03-18T17:17:42.980Z,11.84
2023-03-18T17:22:45.280Z,11.56
2023-03-18T17:27:50.805Z,11.31
2023-03-18T17:32:52.616Z,11.05
2023-03-18T17:37:54.884Z,10.81
2023-03-18T17:42:56.616Z,10.59
2023-03-18T17:48:15.600Z,10.39
2023-03-18T17:53:27.012Z,10.20
2023-03-18T17:58:29.985Z,10.02
2023-03-18T18:03:33.117Z,9.86
2023-03-18T18:08:36.142Z,9.64
2023-03-18T18:13:38.015Z,9.35
2023-03-18T18:18:41.656Z,9.10
2023-03-18T18:23:48.680Z,8.89
2023-03-18T18:28:52.790Z,8.64
2023-03-18T18:33:55.931Z,8.42
2023-03-18T18:38:57.671Z,8.27
2023-03-18T18:43:59.972Z,8.14
2023-03-18T18:49:01.835Z,8.09
2023-03-18T18:54:03.778Z,8.12
2023-03-18T18:59:18.389Z,8.13
2023-03-18T19:04:21.943Z,8.00
2023-03-18T19:09:25.952Z,7.80
2023-03-18T19:14:29.414Z,7.60
2023-03-18T19:19:34.879Z,7.42
2023-03-18T19:24:37.175Z,7.27
2023-03-18T19:29:38.935Z,7.16
2023-03-18T19:34:40.608Z,7.07
2023-03-18T19:39:42.947Z,7.01
2023-03-18T19:44:46.414Z,6.91
2023-03-18T19:49:48.739Z,6.78
2023-03-18T19:54:53.098Z,6.70
2023-03-18T19:59:59.225Z,6.64
2023-03-18T20:05:17.005Z,6.61
2023-03-18T20:10:20.022Z,6.55
2023-03-18T20:15:26.983Z,6.51
2023-03-18T20:20:31.454Z,6.45
2023-03-18T20:25:36.895Z,6.39
2023-03-18T20:30:40.319Z,6.34
2023-03-18T20:35:45.579Z,6.27
2023-03-18T20:40:50.039Z,6.18
2023-03-18T20:45:52.523Z,6.10
2023-03-18T20:50:55.356Z,6.04
2023-03-18T20:55:58.486Z,6.00
2023-03-18T21:01:00.331Z,5.95
2023-03-18T21:06:06.669Z,5.89
2023-03-18T21:11:27.608Z,5.79
2023-03-18T21:16:29.372Z,5.69
2023-03-18T21:21:38.389Z,5.61
2023-03-18T21:26:41.068Z,5.54
2023-03-18T21:31:43.677Z,5.48
2023-03-18T21:36:47.097Z,5.47
2023-03-18T21:41:48.796Z,5.48
2023-03-18T21:46:51.844Z,5.46
2023-03-18T21:51:53.646Z,5.44
2023-03-18T21:56:55.545Z,5.40
2023-03-18T22:01:57.328Z,5.36
2023-03-18T22:06:59.294Z,5.32
2023-03-18T22:12:25.972Z,5.30
2023-03-18T22:17:30.908Z,5.27
2023-03-18T22:22:37.008Z,5.24
2023-03-18T22:27:38.924Z,5.19
2023-03-18T22:32:45.809Z,5.15
2023-03-18T22:37:48.619Z,5.11
2023-03-18T22:42:53.463Z,5.05
2023-03-18T22:48:18.657Z,4.99
2023-03-18T22:53:43.060Z,4.97
2023-03-18T22:58:45.528Z,4.96
2023-03-18T23:03:47.792Z,4.95
2023-03-18T23:08:49.650Z,4.98
2023-03-18T23:13:52.270Z,5.02
2023-03-18T23:18:54.559Z,5.04
2023-03-18T23:23:56.971Z,5.03
2023-03-18T23:28:58.681Z,4.99
2023-03-18T23:34:00.397Z,4.93
2023-03-18T23:39:02.106Z,4.90
2023-03-18T23:44:03.759Z,4.87
2023-03-18T23:49:05.728Z,4.86
2023-03-18T23:54:08.316Z,4.82
2023-03-18T23:59:10.432Z,4.73
